Time;durP1;ratioP1;P1;durP2;ratioP2;P2;SDS_P1;SDS_P2;PMS_P1;PMS_P2;Temp;Humidity;BMP_temperature;BMP_pressure;BME280_temperature;BME280_humidity;BME280_pressure;Samples;Min_cycle;Max_cycle;Signal;HPM_P1;HPM_P2
2021/04/04 00:01:50;;;;;;;13.68;6.72;;;;;;;5.33;53.46;96789.34;5109977;28;20063;-67
2021/04/04 00:04:17;;;;;;;14.02;7.53;;;;;;;5.31;54.02;96791.50;5110525;28;20046;-67
2021/04/04 00:06:43;;;;;;;15.77;6.85;;;;;;;5.25;54.02;96789.91;5109932;28;20036;-67
2021/04/04 00:09:09;;;;;;;12.10;7.03;;;;;;;5.22;54.25;96790.47;5109983;28;20043;-67
2021/04/04 00:11:35;;;;;;;13.38;6.97;;;;;;;5.19;54.23;96778.31;5110226;28;20071;-67
2021/04/04 00:14:01;;;;;;;16.73;7.28;;;;;;;5.17;53.88;96780.47;5110057;28;20088;-67
2021/04/04 00:16:27;;;;;;;13.98;7.18;;;;;;;5.15;53.70;96779.13;5110550;28;20105;-67
2021/04/04 00:18:53;;;;;;;14.45;7.53;;;;;;;5.14;53.87;96785.59;5109616;28;20509;-67
2021/04/04 00:21:20;;;;;;;15.32;7.22;;;;;;;5.12;54.22;96776.97;5110099;28;20101;-67
2021/04/04 00:23:46;;;;;;;12.40;7.13;;;;;;;5.08;54.76;96778.59;5110853;28;20044;-67
2021/04/04 00:26:12;;;;;;;14.25;7.45;;;;;;;5.06;54.46;96778.03;5114203;28;20043;-67
2021/04/04 00:28:38;;;;;;;17.00;7.35;;;;;;;5.02;54.27;96777.00;5113703;28;20048;-67
2021/04/04 00:31:04;;;;;;;12.68;7.38;;;;;;;4.98;54.25;96772.13;5114099;28;20100;-67
2021/04/04 00:33:30;;;;;;;12.55;6.97;;;;;;;4.94;54.24;96771.03;5113958;28;20047;-67
2021/04/04 00:35:56;;;;;;;14.57;7.25;;;;;;;4.92;54.29;96767.81;5114095;28;20046;-67
2021/04/04 00:38:23;;;;;;;13.77;7.53;;;;;;;4.88;54.39;96766.75;5113582;28;20130;-67
2021/04/04 00:40:50;;;;;;;17.55;7.53;;;;;;;4.84;54.17;96779.16;5113857;28;20039;-67
2021/04/04 00:43:16;;;;;;;16.35;7.28;;;;;;;4.80;55.23;96780.75;5113679;28;20502;-67
2021/04/04 00:45:42;;;;;;;15.52;7.18;;;;;;;4.75;55.20;96777.25;5113138;28;20048;-67
2021/04/04 00:48:08;;;;;;;11.40;6.68;;;;;;;4.71;55.41;96782.41;5113915;28;20088;-67
2021/04/04 00:50:37;;;;;;;11.23;6.90;;;;;;;4.64;56.13;96781.84;5113080;28;20040;-67
2021/04/04 00:53:04;;;;;;;16.42;7.10;;;;;;;4.55;56.26;96773.50;5113827;28;20039;-67
2021/04/04 00:55:31;;;;;;;11.02;6.55;;;;;;;4.49;56.33;96773.75;5113276;28;20047;-67
2021/04/04 00:57:57;;;;;;;16.20;6.70;;;;;;;4.45;56.26;96773.50;5113661;28;20046;-67
2021/04/04 01:00:26;;;;;;;17.30;8.02;;;;;;;4.41;56.71;96777.78;5113080;28;20039;-67
2021/04/04 01:02:56;;;;;;;14.02;8.07;;;;;;;4.36;56.70;96780.47;5113618;28;20040;-67
2021/04/04 01:05:28;;;;;;;17.10;7.38;;;;;;;4.33;56.65;96765.66;5113293;28;20135;-67
2021/04/04 01:07:56;;;;;;;11.07;6.57;;;;;;;4.30;57.11;96773.47;5112929;28;20124;-67
2021/04/04 01:10:23;;;;;;;15.23;7.18;;;;;;;4.27;56.88;96777.50;5113627;28;20043;-67
2021/04/04 01:12:59;;;;;;;15.10;7.07;;;;;;;4.26;56.83;96773.19;5112801;28;20509;-67
2021/04/04 01:15:29;;;;;;;14.35;7.50;;;;;;;4.24;57.01;96772.66;5113561;28;20050;-67
2021/04/04 01:17:57;;;;;;;12.23;6.57;;;;;;;4.21;57.19;96773.19;5112924;28;20398;-67
2021/04/04 01:20:27;;;;;;;12.80;7.25;;;;;;;4.18;57.60;96774.53;5112632;28;20040;-67
2021/04/04 01:23:10;;;;;;;14.07;7.85;;;;;;;4.16;57.67;96767.78;5113273;28;20058;-67
2021/04/04 01:25:45;;;;;;;14.98;7.47;;;;;;;4.14;57.59;96767.25;5112116;28;20096;-67
2021/04/04 01:28:15;;;;;;;13.00;6.93;;;;;;;4.12;57.75;96772.06;5113281;28;20048;-67
2021/04/04 01:30:43;;;;;;;13.75;7.55;;;;;;;4.10;57.91;96766.94;5112467;28;20449;-67
2021/04/04 01:33:12;;;;;;;13.07;6.78;;;;;;;4.12;58.08;96770.22;5112890;28;20043;-67
2021/04/04 01:35:42;;;;;;;16.02;7.35;;;;;;;4.13;57.83;96769.13;5111508;28;20095;-67
2021/04/04 01:38:12;;;;;;;14.77;7.75;;;;;;;4.17;57.54;96772.09;5112482;28;20077;-68
2021/04/04 01:40:39;;;;;;;14.75;7.47;;;;;;;4.19;58.36;96769.94;5112889;28;20533;-67
2021/04/04 01:43:07;;;;;;;12.00;7.43;;;;;;;4.18;58.73;96776.41;5112181;28;20050;-67
2021/04/04 01:45:34;;;;;;;14.50;7.70;;;;;;;4.13;58.92;96773.72;5112898;28;20052;-67
2021/04/04 01:48:02;;;;;;;11.07;7.05;;;;;;;4.11;59.34;96775.84;5112022;28;20058;-67
2021/04/04 01:50:29;;;;;;;12.23;7.15;;;;;;;4.08;59.06;96771.00;5112924;28;20043;-67
2021/04/04 01:52:56;;;;;;;14.80;7.50;;;;;;;4.08;59.46;96765.63;5111892;28;20051;-67
2021/04/04 01:55:24;;;;;;;14.18;7.22;;;;;;;4.05;59.50;96760.75;5112691;28;20058;-67
2021/04/04 01:57:51;;;;;;;13.43;7.50;;;;;;;4.07;58.52;96761.28;5112186;28;20158;-67
2021/04/04 02:00:20;;;;;;;14.90;7.78;;;;;;;4.06;58.10;96760.47;5111855;28;20047;-67
2021/04/04 02:02:48;;;;;;;16.58;6.90;;;;;;;4.06;58.25;96759.66;5112495;28;20046;-67
2021/04/04 02:05:17;;;;;;;12.52;7.40;;;;;;;4.03;57.51;96761.03;5111791;28;20100;-67
2021/04/04 02:07:50;;;;;;;14.98;7.78;;;;;;;4.01;57.53;96762.34;5112345;28;20692;-67
2021/04/04 02:10:19;;;;;;;15.15;7.45;;;;;;;4.02;57.61;96753.19;5111419;28;20051;-66
2021/04/04 02:12:45;;;;;;;17.98;7.30;;;;;;;3.96;57.44;96754.25;5112983;28;20090;-66
2021/04/04 02:15:14;;;;;;;13.20;7.30;;;;;;;3.95;58.03;96752.63;5111212;28;20035;-67
2021/04/04 02:17:42;;;;;;;13.82;7.80;;;;;;;3.98;57.89;96752.13;5112477;28;20491;-66
2021/04/04 02:20:13;;;;;;;15.43;7.40;;;;;;;4.00;57.85;96755.34;5111186;28;20061;-66
2021/04/04 02:22:40;;;;;;;18.73;7.75;;;;;;;4.02;58.22;96754.00;5112660;28;20043;-67
2021/04/04 02:25:08;;;;;;;15.00;7.07;;;;;;;4.03;57.77;96758.31;5112127;28;20047;-66
2021/04/04 02:27:34;;;;;;;13.55;7.35;;;;;;;4.04;57.91;96751.84;5111487;28;20047;-67
2021/04/04 02:30:03;;;;;;;12.32;7.28;;;;;;;4.02;58.02;96745.09;5112445;28;20048;-67
2021/04/04 02:32:30;;;;;;;14.75;7.45;;;;;;;3.95;57.84;96748.06;5111056;28;20046;-67
2021/04/04 02:35:00;;;;;;;14.73;7.68;;;;;;;3.93;58.33;96740.25;5112438;28;20048;-66
2021/04/04 02:37:27;;;;;;;15.88;7.25;;;;;;;3.90;58.52;96745.34;5110875;28;20040;-66
2021/04/04 02:39:59;;;;;;;14.45;7.03;;;;;;;3.87;59.22;96737.81;5112272;28;20388;-66
2021/04/04 02:42:27;;;;;;;17.33;7.93;;;;;;;3.81;58.94;96745.06;5110963;28;20062;-66
2021/04/04 02:44:56;;;;;;;15.00;7.78;;;;;;;3.74;58.67;96744.50;5111707;28;20047;-66
2021/04/04 02:47:26;;;;;;;14.15;8.10;;;;;;;3.62;59.22;96739.34;5110725;28;20471;-67
2021/04/04 02:49:54;;;;;;;13.43;7.82;;;;;;;3.68;59.56;96734.78;5110987;28;20427;-66
2021/04/04 02:52:22;;;;;;;16.88;7.75;;;;;;;3.73;59.64;96748.28;5111481;28;20059;-66
2021/04/04 02:54:53;;;;;;;13.43;7.30;;;;;;;3.73;59.76;96750.97;5110769;28;20410;-66
2021/04/04 02:57:20;;;;;;;14.18;7.80;;;;;;;3.72;59.82;96741.25;5111498;28;20055;-67
2021/04/04 02:59:48;;;;;;;14.63;7.63;;;;;;;3.72;59.88;96743.97;5110759;28;20042;-66
2021/04/04 03:02:18;;;;;;;13.00;7.40;;;;;;;3.74;60.34;96741.81;5111109;28;20054;-67
2021/04/04 03:04:46;;;;;;;16.02;7.68;;;;;;;3.73;60.44;96745.56;5111212;28;20123;-66
2021/04/04 03:07:16;;;;;;;16.55;8.27;;;;;;;3.71;60.89;96742.34;5110609;28;20434;-66
2021/04/04 03:09:46;;;;;;;15.13;7.18;;;;;;;3.70;61.04;96745.28;5111132;28;20555;-66
2021/04/04 03:12:15;;;;;;;12.75;7.63;;;;;;;3.68;61.04;96737.47;5110245;28;20096;-66
2021/04/04 03:14:43;;;;;;;15.35;7.45;;;;;;;3.71;60.82;96738.81;5111562;28;20047;-66
2021/04/04 03:17:10;;;;;;;17.85;7.70;;;;;;;3.72;60.83;96743.97;5109730;28;20040;-67
2021/04/04 03:19:39;;;;;;;15.07;7.43;;;;;;;3.73;60.14;96740.19;5111482;28;20048;-66
2021/04/04 03:22:06;;;;;;;15.15;7.55;;;;;;;3.73;60.76;96734.00;5109719;28;20062;-67
2021/04/04 03:24:33;;;;;;;13.48;7.70;;;;;;;3.74;61.06;96739.09;5111273;28;20062;-66
2021/04/04 03:27:02;;;;;;;12.35;7.57;;;;;;;3.74;59.65;96736.41;5110390;28;20108;-66
2021/04/04 03:29:29;;;;;;;16.20;7.80;;;;;;;3.69;59.55;96733.69;5110705;28;20050;-66
2021/04/04 03:31:56;;;;;;;15.73;6.95;;;;;;;3.66;60.10;96739.63;5111003;28;20452;-66
2021/04/04 03:34:24;;;;;;;15.85;7.20;;;;;;;3.64;59.97;96739.88;5109925;28;20043;-66
2021/04/04 03:36:51;;;;;;;13.95;7.88;;;;;;;3.64;60.17;96741.75;5111163;28;20100;-66
2021/04/04 03:39:18;;;;;;;17.85;8.23;;;;;;;3.65;59.79;96732.59;5109570;28;20047;-66
2021/04/04 03:41:45;;;;;;;16.77;7.88;;;;;;;3.63;59.52;96756.31;5111319;28;20056;-66
2021/04/04 03:44:14;;;;;;;15.85;7.70;;;;;;;3.59;60.94;96760.59;5109211;28;20048;-66
2021/04/04 03:46:41;;;;;;;12.90;7.20;;;;;;;3.53;61.06;96756.25;5110990;28;20043;-66
2021/04/04 03:49:07;;;;;;;15.50;7.97;;;;;;;3.46;61.06;96753.81;5106649;28;20044;-67
2021/04/04 03:51:34;;;;;;;11.93;7.60;;;;;;;3.45;61.01;96759.47;5110210;28;20036;-66
2021/04/04 03:54:01;;;;;;;13.50;7.30;;;;;;;3.48;61.19;96764.31;5110637;28;20039;-67
2021/04/04 03:56:32;;;;;;;16.75;8.48;;;;;;;3.53;61.20;96750.88;5109898;28;20487;-66
2021/04/04 03:59:02;;;;;;;14.52;7.30;;;;;;;3.51;61.27;96755.72;5110066;28;20066;-66
2021/04/04 04:01:30;;;;;;;14.02;8.13;;;;;;;3.50;61.47;96756.78;5109395;28;20036;-66
2021/04/04 04:04:00;;;;;;;13.43;8.02;;;;;;;3.51;61.59;96761.91;5111021;28;20040;-66
2021/04/04 04:06:27;;;;;;;15.63;8.20;;;;;;;3.53;61.71;96756.25;5109115;28;20533;-67
2021/04/04 04:08:53;;;;;;;13.65;8.00;;;;;;;3.52;61.31;96757.34;5110744;28;20047;-66
2021/04/04 04:11:19;;;;;;;13.07;7.57;;;;;;;3.53;61.22;96756.25;5109651;28;20052;-66
2021/04/04 04:13:47;;;;;;;14.80;7.88;;;;;;;3.52;61.24;96754.66;5110376;28;20044;-66
2021/04/04 04:16:15;;;;;;;13.02;7.88;;;;;;;3.48;61.53;96754.34;5109961;28;20050;-67
2021/04/04 04:18:43;;;;;;;13.50;8.10;;;;;;;3.45;61.78;96748.72;5109660;28;20073;-66
2021/04/04 04:21:11;;;;;;;16.88;8.45;;;;;;;3.39;61.86;96751.38;5110163;28;20055;-66
2021/04/04 04:23:39;;;;;;;14.15;7.65;;;;;;;3.32;61.69;96750.78;5109623;28;20101;-66
2021/04/04 04:26:08;;;;;;;14.93;8.13;;;;;;;3.27;61.90;96750.75;5110130;28;20044;-67
2021/04/04 04:28:35;;;;;;;14.07;8.02;;;;;;;3.23;62.03;96746.97;5109676;28;20097;-66
2021/04/04 04:31:03;;;;;;;14.73;7.68;;;;;;;3.21;62.17;96754.50;5110088;28;20051;-69
2021/04/04 04:33:30;;;;;;;14.60;7.75;;;;;;;3.16;62.29;96746.41;5109915;28;20048;-66
2021/04/04 04:35:57;;;;;;;17.42;7.35;;;;;;;3.07;62.98;96750.66;5109913;28;20073;-66
2021/04/04 04:38:25;;;;;;;15.68;7.45;;;;;;;3.00;63.12;96744.69;5109609;28;20047;-66
2021/04/04 04:40:51;;;;;;;12.20;7.35;;;;;;;2.97;63.02;96754.06;5109610;28;20527;-66
2021/04/04 04:43:19;;;;;;;14.85;7.03;;;;;;;2.95;63.19;96755.44;5110004;28;20040;-68
2021/04/04 04:45:46;;;;;;;13.95;7.30;;;;;;;2.91;63.58;96762.38;5109460;28;20052;-68
2021/04/04 04:48:12;;;;;;;12.80;7.07;;;;;;;2.87;63.86;96759.38;5110032;28;20055;-68
2021/04/04 04:50:41;;;;;;;14.98;7.40;;;;;;;2.83;64.38;96751.06;5109197;28;20046;-68
2021/04/04 04:53:08;;;;;;;14.15;6.93;;;;;;;2.77;64.48;96760.16;5110022;28;20036;-69
2021/04/04 04:55:36;;;;;;;13.43;6.72;;;;;;;2.69;64.61;96757.94;5109646;28;20089;-68
2021/04/04 04:58:05;;;;;;;14.07;7.03;;;;;;;2.63;64.67;96753.59;5109394;28;20036;-69
2021/04/04 05:00:32;;;;;;;12.32;6.57;;;;;;;2.64;64.92;96759.78;5109912;28;20578;-68
2021/04/04 05:02:58;;;;;;;11.45;6.60;;;;;;;2.58;65.26;96756.25;5109575;28;20065;-68
2021/04/04 05:05:24;;;;;;;12.43;6.47;;;;;;;2.54;65.51;96750.56;5109639;28;20510;-68
2021/04/04 05:07:53;;;;;;;15.60;6.57;;;;;;;2.51;65.80;96753.78;5109184;28;20063;-68
2021/04/04 05:10:21;;;;;;;13.05;6.30;;;;;;;2.47;65.87;96755.34;5112066;28;20052;-68
2021/04/04 05:12:53;;;;;;;12.55;6.22;;;;;;;2.43;65.98;96754.22;5113007;28;20043;-68
2021/04/04 05:15:23;;;;;;;11.88;6.85;;;;;;;2.40;65.90;96752.03;5113368;28;20113;-68
2021/04/04 05:17:49;;;;;;;14.93;6.50;;;;;;;2.35;65.88;96749.34;5112891;28;20472;-66
2021/04/04 05:20:18;;;;;;;16.63;6.65;;;;;;;2.23;66.05;96752.16;5112750;28;20141;-66
2021/04/04 05:22:44;;;;;;;12.05;6.22;;;;;;;2.22;66.45;96747.88;5113232;28;20039;-66
2021/04/04 05:25:10;;;;;;;12.02;6.43;;;;;;;2.24;66.64;96756.47;5112378;28;20395;-66
2021/04/04 05:27:37;;;;;;;13.07;6.65;;;;;;;2.27;66.18;96755.97;5113428;28;20036;-66
2021/04/04 05:30:10;;;;;;;14.30;7.13;;;;;;;2.31;66.47;96751.72;5112021;28;20060;-66
2021/04/04 05:32:43;;;;;;;14.48;6.93;;;;;;;2.33;66.46;96754.94;5113644;28;20461;-67
2021/04/04 05:35:12;;;;;;;20.37;7.37;;;;;;;2.32;66.54;96753.34;5112061;28;20043;-66
2021/04/04 05:37:42;;;;;;;12.00;6.97;;;;;;;2.34;66.31;96767.31;5113227;28;20046;-66
2021/04/04 05:40:15;;;;;;;14.93;6.65;;;;;;;2.39;66.30;96763.88;5112193;28;20039;-67
2021/04/04 05:42:49;;;;;;;;;;;;;;;2.40;66.26;96759.28;5113393;28;20036;-66
2021/04/04 05:45:23;;;;;;;11.85;6.30;;;;;;;2.38;66.39;96761.44;5112617;28;19923;-66
2021/04/04 05:47:55;;;;;;;;;;;;;;;2.37;66.05;96759.81;5112707;28;20054;-66
2021/04/04 05:50:25;;;;;;;13.73;6.90;;;;;;;2.36;66.06;96759.03;5112716;28;19927;-66
2021/04/04 05:52:57;;;;;;;14.48;7.45;;;;;;;2.45;66.01;96756.66;5111970;28;20046;-67
2021/04/04 05:55:33;;;;;;;14.95;6.75;;;;;;;2.47;65.25;96766.09;5112622;28;20092;-66
2021/04/04 05:58:03;;;;;;;14.73;6.95;;;;;;;2.55;65.41;96762.13;5112445;28;20097;-66
2021/04/04 06:00:34;;;;;;;11.10;6.90;;;;;;;2.65;65.88;96762.19;5112363;28;20036;-66
2021/04/04 06:03:41;;;;;;;15.25;7.53;;;;;;;2.77;65.61;96770.91;5112699;28;20047;-66
2021/04/04 06:06:38;;;;;;;16.13;7.00;;;;;;;2.84;65.56;96760.72;5111105;28;20039;-67
2021/04/04 06:09:34;;;;;;;9.80;6.32;;;;;;;2.96;65.21;96767.78;5111905;28;20043;-66
2021/04/04 06:12:12;;;;;;;13.55;6.88;;;;;;;3.02;64.26;96774.81;5112667;28;20044;-66
2021/04/04 06:14:49;;;;;;;13.93;7.63;;;;;;;3.04;63.72;96765.44;5111448;28;20035;-66
2021/04/04 06:17:23;;;;;;;12.00;7.25;;;;;;;3.14;63.23;96759.31;5112563;28;20055;-66
2021/04/04 06:19:59;;;;;;;12.18;6.53;;;;;;;3.18;63.12;96764.97;5111451;28;20039;-66
2021/04/04 06:22:34;;;;;;;10.65;6.28;;;;;;;3.32;62.42;96760.75;5111124;28;20383;-67
2021/04/04 06:25:05;;;;;;;15.25;7.18;;;;;;;3.45;61.62;96770.25;5111838;28;20055;-67
2021/04/04 06:27:38;;;;;;;10.20;6.35;;;;;;;3.49;61.18;96757.84;5111357;28;20085;-67
2021/04/04 06:30:21;;;;;;;11.40;6.57;;;;;;;3.57;61.08;96751.97;5112240;28;20039;-67
2021/04/04 06:33:00;;;;;;;10.50;6.65;;;;;;;3.65;61.08;96764.91;5111238;28;20589;-67
2021/04/04 06:35:37;;;;;;;14.23;6.72;;;;;;;3.72;61.07;96768.19;5112098;28;20044;-67
2021/04/04 06:38:15;;;;;;;11.63;6.22;;;;;;;3.81;60.94;96758.53;5111278;28;20040;-67
2021/04/04 06:40:46;;;;;;;15.88;7.07;;;;;;;3.90;60.34;96762.31;5111378;28;20494;-67
2021/04/04 06:43:24;;;;;;;11.98;6.00;;;;;;;4.01;59.66;96763.16;5111431;28;20048;-67
2021/04/04 06:46:09;;;;;;;12.38;6.45;;;;;;;4.09;59.30;96764.53;5111234;28;20040;-67
2021/04/04 06:48:45;;;;;;;13.77;6.70;;;;;;;4.19;59.44;96753.78;5111984;28;20044;-67
2021/04/04 06:51:19;;;;;;;14.52;7.07;;;;;;;4.24;59.85;96753.78;5091595;28;20044;-67
2021/04/04 06:54:04;;;;;;;10.68;6.47;;;;;;;4.30;60.61;96755.41;5111586;28;20047;-67
2021/04/04 06:56:41;;;;;;;14.75;6.90;;;;;;;4.40;59.47;96754.59;5111550;28;20092;-67
2021/04/04 06:59:16;;;;;;;19.02;7.10;;;;;;;4.53;59.76;96759.47;5089949;28;20040;-67
2021/04/04 07:01:58;;;;;;;14.65;7.20;;;;;;;4.69;59.78;96752.16;5091673;28;20414;-67
2021/04/04 07:04:32;;;;;;;13.30;6.93;;;;;;;4.83;59.53;96747.84;5090177;28;20044;-67
2021/04/04 07:07:09;;;;;;;;;;;;;;;5.02;60.67;96755.41;5091467;28;20089;-67
2021/04/04 07:10:17;;;;;;;13.68;6.70;;;;;;;5.14;58.07;96766.72;5090727;28;19924;-66
2021/04/04 07:13:01;;;;;;;10.93;6.63;;;;;;;5.27;58.91;96763.41;5082983;28;20032;-67
2021/04/04 07:15:42;;;;;;;13.00;6.35;;;;;;;5.38;57.92;96762.34;5090816;28;20051;-69
2021/04/04 07:18:27;;;;;;;12.15;6.40;;;;;;;5.46;57.41;96767.16;5090278;28;20054;-66
2021/04/04 07:21:09;;;;;;;12.18;5.97;;;;;;;5.61;56.97;96769.00;5108830;28;20414;-66
2021/04/04 07:23:52;;;;;;;14.43;5.78;;;;;;;6.04;54.60;96768.56;5111503;28;20050;-66
2021/04/04 07:26:35;;;;;;;14.55;6.07;;;;;;;7.33;51.25;96765.41;5109596;28;20055;-66
2021/04/04 07:29:36;;;;;;;11.68;5.68;;;;;;;8.62;46.60;96767.03;5110515;28;20039;-67
2021/04/04 07:32:08;;;;;;;11.60;5.35;;;;;;;9.40;44.36;96767.34;5110771;28;20040;-67
2021/04/04 07:34:43;;;;;;;10.13;5.82;;;;;;;10.04;44.69;96762.81;5091310;28;20051;-67
2021/04/04 07:37:21;;;;;;;6.07;3.45;;;;;;;10.91;37.01;96766.31;5110696;28;20422;-67
2021/04/04 07:39:55;;;;;;;6.65;3.70;;;;;;;11.52;37.67;96764.75;5110242;28;20051;-67
2021/04/04 07:42:25;;;;;;;9.73;5.18;;;;;;;12.34;39.63;96757.81;5110528;28;20051;-67
2021/04/04 07:44:56;;;;;;;8.95;4.32;;;;;;;12.95;35.18;96760.59;5110615;28;20091;-68
2021/04/04 07:47:26;;;;;;;7.82;4.07;;;;;;;13.13;33.39;96756.69;5109801;28;20096;-68
2021/04/04 07:49:58;;;;;;;8.65;4.03;;;;;;;13.62;33.72;96759.97;5110562;28;20047;-68
2021/04/04 07:52:27;;;;;;;11.20;3.70;;;;;;;14.10;31.19;96750.59;5109161;28;20040;-68
2021/04/04 07:55:04;;;;;;;7.57;3.70;;;;;;;14.36;30.32;96753.97;5110985;28;20043;-68
2021/04/04 07:57:43;;;;;;;7.07;3.35;;;;;;;14.72;30.84;96760.00;5109656;28;20040;-69
2021/04/04 08:00:11;;;;;;;5.60;2.80;;;;;;;15.22;28.64;96768.13;5110076;28;20036;-69
2021/04/04 08:02:46;;;;;;;6.57;2.17;;;;;;;15.57;26.02;96773.25;5109986;28;20555;-67
2021/04/04 08:05:15;;;;;;;4.57;1.67;;;;;;;15.91;24.19;96770.13;5109770;28;20035;-67
2021/04/04 08:07:50;;;;;;;4.72;2.17;;;;;;;16.35;25.60;96770.34;5110519;28;20506;-67
2021/04/04 08:10:23;;;;;;;3.72;1.67;;;;;;;16.71;23.16;96760.47;5109236;28;20048;-67
2021/04/04 08:12:54;;;;;;;4.90;1.67;;;;;;;16.85;22.71;96760.88;5110937;28;20040;-67
2021/04/04 08:15:23;;;;;;;3.00;1.40;;;;;;;16.93;20.96;96761.91;5109309;28;20069;-69
2021/04/04 08:17:49;;;;;;;5.75;2.30;;;;;;;17.11;21.94;96757.69;5110363;28;20048;-67
2021/04/04 08:20:21;;;;;;;4.38;2.35;;;;;;;17.19;23.54;96761.47;5109299;28;20043;-68
2021/04/04 08:22:57;;;;;;;8.15;2.38;;;;;;;17.27;22.20;96760.47;5110303;28;20040;-67
2021/04/04 08:25:31;;;;;;;4.65;2.70;;;;;;;17.48;22.83;96761.06;5110106;28;20100;-67
2021/04/04 08:28:02;;;;;;;5.47;3.17;;;;;;;17.14;23.39;96757.00;5109369;28;20046;-67
2021/04/04 08:30:32;;;;;;;5.10;2.53;;;;;;;17.03;24.87;96752.34;5110480;28;20043;-67
2021/04/04 08:33:03;;;;;;;4.20;2.35;;;;;;;17.62;24.59;96760.66;5109516;28;20117;-67
2021/04/04 08:35:34;;;;;;;5.32;2.33;;;;;;;17.81;22.75;96745.41;5110334;28;20051;-67
2021/04/04 08:38:09;;;;;;;4.75;2.97;;;;;;;17.96;21.29;96748.19;5109746;28;20092;-67
2021/04/04 08:40:37;;;;;;;5.13;2.72;;;;;;;17.79;22.68;96742.19;5109944;28;20057;-67
2021/04/04 08:43:04;;;;;;;3.92;2.50;;;;;;;17.97;22.08;96746.22;5109844;28;20395;-68
2021/04/04 08:45:35;;;;;;;5.47;2.50;;;;;;;18.45;22.50;96742.22;5112155;28;20589;-67
2021/04/04 08:48:02;;;;;;;5.72;2.28;;;;;;;18.90;23.19;96743.63;5113962;28;20043;-69
2021/04/04 08:50:32;;;;;;;5.95;2.85;;;;;;;19.31;22.20;96749.56;5113197;28;20043;-67
2021/04/04 08:53:02;;;;;;;6.07;2.90;;;;;;;19.61;21.36;96743.44;5114461;28;20039;-67
2021/04/04 08:55:30;;;;;;;4.88;2.92;;;;;;;19.84;21.86;96744.25;5113117;28;20028;-67
2021/04/04 08:58:01;;;;;;;3.85;2.20;;;;;;;20.14;21.11;96747.09;5113921;28;20072;-67
2021/04/04 09:00:30;;;;;;;4.70;1.95;;;;;;;19.60;19.41;96747.38;5113253;28;20043;-67
2021/04/04 09:02:59;;;;;;;4.15;1.48;;;;;;;19.72;20.16;96753.50;5113474;28;20518;-67
2021/04/04 09:05:30;;;;;;;5.38;2.10;;;;;;;18.64;18.78;96749.75;5113719;28;20044;-68
2021/04/04 09:07:59;;;;;;;5.57;1.80;;;;;;;17.53;20.63;96749.00;5112733;28;20384;-67
2021/04/04 09:10:28;;;;;;;2.40;1.40;;;;;;;16.27;21.69;96748.47;5113749;28;20043;-67
2021/04/04 09:12:57;;;;;;;4.35;1.58;;;;;;;15.33;22.97;96747.34;5112888;28;20043;-67
2021/04/04 09:15:25;;;;;;;10.25;1.95;;;;;;;14.54;24.41;96759.34;5113565;28;20442;-67
2021/04/04 09:17:54;;;;;;;5.95;2.00;;;;;;;14.09;24.29;96751.69;5112880;28;20543;-67
2021/04/04 09:20:32;;;;;;;5.80;2.00;;;;;;;14.03;26.61;96745.59;5112977;28;20040;-67
2021/04/04 09:23:00;;;;;;;3.53;2.00;;;;;;;14.27;27.07;96747.72;5113137;28;20040;-67
2021/04/04 09:25:28;;;;;;;4.97;2.03;;;;;;;14.60;26.99;96752.53;5112274;28;20167;-67
2021/04/04 09:27:57;;;;;;;8.43;2.08;;;;;;;15.68;26.43;96757.97;5113370;28;20096;-67
2021/04/04 09:30:34;;;;;;;7.18;1.90;;;;;;;16.54;24.26;96750.50;5111952;28;20666;-67
2021/04/04 09:33:04;;;;;;;3.17;1.80;;;;;;;17.18;20.58;96751.59;5113833;28;20118;-67
2021/04/04 09:35:30;;;;;;;4.85;1.70;;;;;;;17.21;22.70;96739.88;5112151;28;20526;-67
2021/04/04 09:38:01;;;;;;;3.58;1.90;;;;;;;17.19;21.51;96743.00;5113116;28;20051;-67
2021/04/04 09:40:28;;;;;;;4.07;1.70;;;;;;;17.50;21.55;96735.94;5112478;28;20048;-67
2021/04/04 09:43:04;;;;;;;5.60;2.47;;;;;;;17.53;20.57;96739.94;5112725;28;20135;-67
2021/04/04 09:45:30;;;;;;;3.65;2.10;;;;;;;17.76;21.31;96743.72;5112842;28;20051;-67
2021/04/04 09:47:56;;;;;;;5.53;1.90;;;;;;;17.93;20.34;96732.34;5111948;28;20066;-67
2021/04/04 09:50:24;;;;;;;3.38;1.95;;;;;;;17.93;21.14;96740.59;5112557;28;20479;-67
2021/04/04 09:52:52;;;;;;;4.40;2.20;;;;;;;17.84;20.98;96731.72;5111918;28;20537;-67
2021/04/04 09:55:19;;;;;;;3.20;1.60;;;;;;;17.85;20.58;96735.25;5112629;28;20513;-67
2021/04/04 09:57:49;;;;;;;8.63;2.22;;;;;;;17.82;20.99;96731.28;5111018;28;20043;-68
2021/04/04 10:00:26;;;;;;;3.90;2.10;;;;;;;16.91;22.20;96726.50;5112437;28;20047;-67
2021/04/04 10:02:55;;;;;;;6.35;2.50;;;;;;;16.42;22.31;96725.78;5112420;28;20044;-67
2021/04/04 10:05:29;;;;;;;4.53;2.25;;;;;;;16.56;23.20;96726.22;5111365;28;20097;-67
2021/04/04 10:08:07;;;;;;;6.53;2.22;;;;;;;16.51;22.69;96725.66;5112836;28;20415;-67
2021/04/04 10:10:33;;;;;;;4.68;2.80;;;;;;;16.54;23.27;96724.97;5111626;28;20069;-67
2021/04/04 10:13:00;;;;;;;3.45;2.00;;;;;;;16.83;22.62;96719.19;5112891;28;20119;-67
2021/04/04 10:15:27;;;;;;;4.82;2.45;;;;;;;16.93;22.24;96712.38;5111009;28;20040;-67
2021/04/04 10:17:55;;;;;;;3.42;2.17;;;;;;;16.61;22.03;96717.75;5112492;28;20126;-67
2021/04/04 10:20:30;;;;;;;3.38;2.03;;;;;;;16.14;21.08;96714.75;5110980;28;20460;-67
2021/04/04 10:22:57;;;;;;;4.80;2.00;;;;;;;15.66;23.28;96710.84;5111716;28;20491;-67
2021/04/04 10:25:23;;;;;;;5.93;2.20;;;;;;;15.31;23.12;96719.44;5111609;28;20169;-67
2021/04/04 10:27:57;;;;;;;4.35;2.20;;;;;;;15.26;23.11;96713.38;5111209;28;20039;-67
2021/04/04 10:30:27;;;;;;;5.80;2.15;;;;;;;15.14;23.09;96712.22;5111986;28;20047;-67
2021/04/04 10:32:54;;;;;;;6.25;2.13;;;;;;;14.23;24.43;96705.69;5111295;28;20043;-66
2021/04/04 10:35:32;;;;;;;4.85;2.65;;;;;;;13.77;26.63;96703.88;5112033;28;20039;-67
2021/04/04 10:38:03;;;;;;;3.85;1.90;;;;;;;13.29;25.70;96700.38;5111444;28;20036;-67
2021/04/04 10:40:47;;;;;;;4.53;2.50;;;;;;;12.65;27.74;96697.59;5111526;28;20051;-67
2021/04/04 10:43:15;;;;;;;6.70;2.65;;;;;;;11.81;28.04;96700.69;5111428;28;20564;-67
2021/04/04 10:46:12;;;;;;;5.72;2.58;;;;;;;11.82;28.62;96696.88;5111057;28;20043;-67
2021/04/04 10:48:40;;;;;;;5.85;2.30;;;;;;;11.67;28.36;96693.44;5028888;28;20080;-67
2021/04/04 10:51:08;;;;;;;6.03;2.30;;;;;;;11.63;30.99;96687.00;5072161;28;20439;-67
2021/04/04 10:53:35;;;;;;;3.65;2.40;;;;;;;11.97;29.44;96696.44;5091288;28;20040;-67
2021/04/04 10:56:02;;;;;;;5.32;2.08;;;;;;;12.33;28.98;96684.44;5090381;28;20040;-69
2021/04/04 10:58:28;;;;;;;4.60;2.40;;;;;;;12.37;28.56;96688.09;5105870;28;20039;-67
2021/04/04 11:00:55;;;;;;;4.30;2.45;;;;;;;12.49;27.42;96678.16;5111563;28;20043;-68
2021/04/04 11:03:22;;;;;;;4.93;2.75;;;;;;;12.83;27.88;96681.16;5110390;28;20063;-67
2021/04/04 11:05:50;;;;;;;2.72;1.88;;;;;;;13.11;27.81;96671.47;5111415;28;20031;-67
2021/04/04 11:08:17;;;;;;;6.32;2.60;;;;;;;13.32;26.22;96675.13;5109639;28;20074;-67
2021/04/04 11:10:44;;;;;;;3.22;2.03;;;;;;;13.32;26.25;96672.38;5111803;28;20059;-67
2021/04/04 11:13:13;;;;;;;3.67;2.20;;;;;;;13.41;25.86;96669.59;5110012;28;20100;-66
2021/04/04 11:15:42;;;;;;;3.85;2.00;;;;;;;13.48;27.35;96663.63;5111756;28;20058;-66
2021/04/04 11:18:12;;;;;;;3.63;1.98;;;;;;;13.47;25.75;96651.09;5110023;28;20043;-67
2021/04/04 11:20:41;;;;;;;6.47;2.88;;;;;;;13.31;26.91;96654.38;5110761;28;20047;-66
2021/04/04 11:23:09;;;;;;;6.00;2.40;;;;;;;13.56;28.80;96649.09;5110333;28;20040;-67
2021/04/04 11:25:36;;;;;;;4.35;2.30;;;;;;;13.81;25.07;96645.41;5110377;28;20043;-67
2021/04/04 11:28:14;;;;;;;5.70;2.40;;;;;;;13.50;25.45;96645.75;5110398;28;20050;-67
2021/04/04 11:30:41;;;;;;;3.40;2.08;;;;;;;13.80;30.42;96643.81;5110361;28;20052;-67
2021/04/04 11:33:28;;;;;;;3.97;2.17;;;;;;;14.20;23.75;96646.13;5110752;28;20039;-67
2021/04/04 11:35:59;;;;;;;6.93;2.03;;;;;;;14.28;23.90;96634.28;5110091;28;20120;-68
2021/04/04 11:38:27;;;;;;;3.72;2.15;;;;;;;14.40;24.52;96632.72;5110494;28;20490;-68
2021/04/04 11:41:12;;;;;;;4.38;2.30;;;;;;;14.21;25.02;96628.53;5110285;28;20043;-67
2021/04/04 11:43:39;;;;;;;6.25;2.17;;;;;;;14.31;24.66;96628.16;5110095;28;20039;-67
2021/04/04 11:46:05;;;;;;;3.70;2.17;;;;;;;14.31;24.82;96614.44;5110502;28;20047;-69
2021/04/04 11:48:32;;;;;;;3.88;2.33;;;;;;;14.39;25.71;96631.94;5109831;28;20039;-67
2021/04/04 11:51:29;;;;;;;4.43;2.20;;;;;;;13.88;24.16;96617.50;5110966;28;20052;-67